Time,TemperatureF,DewpointF,PressureIn,WindDirection,WindDirectionDegrees,WindSpeedMPH,WindSpeedGustMPH,Humidity,HourlyPrecipIn,Conditions,Clouds,dailyrainin,SolarRadiationWatts/m^2,SoftwareType,DateUTC
2014-12-27 00:22:00,17.0,15.0,-100.00,NW,310,11.0,21.0,90,0.00,,,0.00,0.000000,,2014-12-27 07:22:00,
2014-12-27 00:32:00,17.0,15.0,-100.00,NW,310,11.0,21.0,90,0.00,,,0.00,0.000000,,2014-12-27 07:32:00,
2014-12-27 00:43:00,17.0,15.0,-100.00,NW,310,11.0,21.0,90,0.00,,,0.00,0.000000,,2014-12-27 07:43:00,
2014-12-27 00:52:00,17.0,15.0,-100.00,NW,310,11.0,21.0,90,0.00,,,0.00,0.000000,,2014-12-27 07:52:00,
2014-12-27 01:22:00,18.0,16.0,-100.00,NW,311,11.0,19.0,90,0.00,,,-99.99,0.000000,,2014-12-27 08:22:00,
2014-12-27 01:32:00,18.0,16.0,-100.00,NW,311,11.0,19.0,90,0.00,,,-99.99,0.000000,,2014-12-27 08:32:00,
2014-12-27 01:42:00,18.0,16.0,-100.00,NW,311,11.0,19.0,90,0.00,,,-99.99,0.000000,,2014-12-27 08:42:00,
2014-12-27 01:52:00,18.0,16.0,-100.00,NW,311,11.0,19.0,90,0.00,,,-99.99,0.000000,,2014-12-27 08:52:00,
2014-12-27 02:22:00,18.0,15.0,-100.00,WNW,296,10.0,17.0,89,0.00,,,0.00,0.000000,,2014-12-27 09:22:00,
2014-12-27 02:33:00,18.0,15.0,-100.00,WNW,296,10.0,17.0,89,0.00,,,0.00,0.000000,,2014-12-27 09:33:00,
2014-12-27 02:44:00,18.0,15.0,-100.00,WNW,296,10.0,17.0,89,0.00,,,0.00,0.000000,,2014-12-27 09:44:00,
2014-12-27 02:53:00,18.0,15.0,-100.00,WNW,296,10.0,17.0,89,0.00,,,0.00,0.000000,,2014-12-27 09:53:00,
2014-12-27 03:23:00,18.0,15.0,-100.00,WNW,294,9.0,22.0,89,0.00,,,0.00,0.000000,,2014-12-27 10:23:00,
2014-12-27 03:33:00,18.0,15.0,-100.00,WNW,294,9.0,22.0,89,0.00,,,0.00,0.000000,,2014-12-27 10:33:00,
2014-12-27 03:43:00,18.0,15.0,-100.00,WNW,294,9.0,22.0,89,0.00,,,0.00,0.000000,,2014-12-27 10:43:00,
2014-12-27 03:53:00,18.0,15.0,-100.00,WNW,294,9.0,22.0,89,0.00,,,0.00,0.000000,,2014-12-27 10:53:00,
2014-12-27 04:22:00,17.0,14.0,-100.00,WNW,291,9.0,17.0,88,0.00,,,0.00,0.000000,,2014-12-27 11:22:00,
2014-12-27 04:33:00,17.0,14.0,-100.00,WNW,291,9.0,17.0,88,0.00,,,0.00,0.000000,,2014-12-27 11:33:00,
2014-12-27 04:43:00,17.0,14.0,-100.00,WNW,291,9.0,17.0,88,0.00,,,0.00,0.000000,,2014-12-27 11:43:00,
2014-12-27 04:52:00,17.0,14.0,-100.00,WNW,291,9.0,17.0,88,0.00,,,0.00,0.000000,,2014-12-27 11:52:00,
2014-12-27 05:22:00,16.0,13.0,-100.00,West,263,10.0,16.0,87,0.00,,,0.00,0.000000,,2014-12-27 12:22:00,
2014-12-27 05:32:00,16.0,13.0,-100.00,West,263,10.0,16.0,87,0.00,,,0.00,0.000000,,2014-12-27 12:32:00,
2014-12-27 05:42:00,16.0,13.0,-100.00,West,263,10.0,16.0,87,0.00,,,0.00,0.000000,,2014-12-27 12:42:00,
2014-12-27 05:52:00,16.0,13.0,-100.00,West,263,10.0,16.0,87,0.00,,,0.00,0.000000,,2014-12-27 12:52:00,
2014-12-27 06:22:00,16.0,13.0,-100.00,WSW,256,8.0,14.0,87,0.00,,,0.00,0.000000,,2014-12-27 13:22:00,
2014-12-27 06:32:00,16.0,13.0,-100.00,WSW,256,8.0,14.0,87,0.00,,,0.00,0.000000,,2014-12-27 13:32:00,
2014-12-27 06:42:00,16.0,13.0,-100.00,WSW,256,8.0,14.0,87,0.00,,,0.00,0.000000,,2014-12-27 13:42:00,
2014-12-27 06:52:00,16.0,13.0,-100.00,WSW,256,8.0,14.0,87,0.00,,,0.00,0.000000,,2014-12-27 13:52:00,
2014-12-27 07:22:00,14.0,11.0,-100.00,SSW,209,6.0,11.0,87,0.00,,,0.00,0.000000,,2014-12-27 14:22:00,
2014-12-27 07:32:00,14.0,11.0,-100.00,SSW,209,6.0,11.0,87,0.00,,,0.00,0.000000,,2014-12-27 14:32:00,
2014-12-27 07:42:00,14.0,11.0,-100.00,SSW,209,6.0,11.0,87,0.00,,,0.00,0.000000,,2014-12-27 14:42:00,
2014-12-27 07:52:00,14.0,11.0,-100.00,SSW,209,6.0,11.0,87,0.00,,,0.00,0.000000,,2014-12-27 14:52:00,
2014-12-27 07:54:00,15.0,12.0,-100.00,SW,223,13.0,20.0,86,0.00,,,-99.99,4.000000,,2014-12-27 14:54:00,
2014-12-27 08:22:00,15.0,12.0,-100.00,SW,223,13.0,20.0,86,0.00,,,-99.99,4.000000,,2014-12-27 15:22:00,
2014-12-27 08:33:00,15.0,12.0,-100.00,SW,223,13.0,20.0,86,0.00,,,-99.99,4.000000,,2014-12-27 15:33:00,
2014-12-27 08:43:00,15.0,12.0,-100.00,SW,223,13.0,20.0,86,0.00,,,-99.99,4.000000,,2014-12-27 15:43:00,
2014-12-27 09:24:00,18.0,13.0,-100.00,WSW,247,8.0,16.0,81,0.00,,,0.00,80.000000,,2014-12-27 16:24:00,
2014-12-27 09:33:00,18.0,13.0,-100.00,WSW,247,8.0,16.0,81,0.00,,,0.00,80.000000,,2014-12-27 16:33:00,
2014-12-27 09:43:00,18.0,13.0,-100.00,WSW,247,8.0,16.0,81,0.00,,,0.00,80.000000,,2014-12-27 16:43:00,
2014-12-27 09:53:00,18.0,13.0,-100.00,WSW,247,8.0,16.0,81,0.00,,,0.00,80.000000,,2014-12-27 16:53:00,
2014-12-27 10:22:00,20.0,13.0,-100.00,West,261,10.0,19.0,74,0.00,,,0.00,272.000000,,2014-12-27 17:22:00,